createdAt,value
2022-11-14T00:04:21.726Z,7.24
2022-11-14T00:07:10.524Z,7.17
2022-11-14T00:12:40.275Z,7.40
2022-11-14T00:18:16.691Z,7.21
2022-11-14T00:23:53.978Z,7.24
2022-11-14T00:29:21.741Z,7.20
2022-11-14T00:34:52.192Z,7.21
2022-11-14T00:40:30.796Z,7.15
2022-11-14T00:46:05.442Z,6.98
2022-11-14T00:51:41.857Z,6.93
2022-11-14T00:54:30.465Z,7.06
2022-11-14T01:00:18.261Z,6.95
2022-11-14T01:05:48.889Z,7.00
2022-11-14T01:11:23.244Z,7.08
2022-11-14T01:14:11.809Z,6.97
2022-11-14T01:19:47.000Z,7.13
2022-11-14T01:25:19.774Z,7.10
2022-11-14T01:30:49.598Z,7.18
2022-11-14T01:33:38.029Z,7.16
2022-11-14T01:39:07.622Z,7.22
2022-11-14T01:44:47.701Z,7.24
2022-11-14T01:47:36.260Z,7.12
2022-11-14T01:53:12.493Z,7.17
2022-11-14T01:58:52.810Z,7.14
2022-11-14T02:04:26.767Z,7.11
2022-11-14T02:07:15.875Z,7.10
2022-11-14T02:12:46.482Z,7.09
2022-11-14T02:18:16.384Z,7.08
2022-11-14T02:21:05.470Z,7.06
2022-11-14T02:26:36.992Z,6.90
2022-11-14T02:32:16.724Z,7.02
2022-11-14T02:35:06.739Z,6.96
2022-11-14T02:37:54.922Z,6.91
2022-11-14T02:43:29.434Z,6.69
2022-11-14T02:49:04.787Z,6.86
2022-11-14T02:51:53.263Z,6.86
2022-11-14T02:57:29.440Z,6.74
2022-11-14T03:00:21.166Z,6.83
2022-11-14T03:05:53.619Z,6.84
2022-11-14T03:08:41.311Z,6.87
2022-11-14T03:14:10.777Z,6.99
2022-11-14T03:16:59.295Z,6.90
2022-11-14T03:22:35.486Z,6.99
2022-11-14T03:28:08.451Z,7.14
2022-11-14T03:33:44.807Z,7.21
2022-11-14T03:39:15.635Z,6.98
2022-11-14T03:42:04.999Z,6.93
2022-11-14T03:44:53.357Z,6.97
2022-11-14T03:50:22.841Z,7.04
2022-11-14T03:56:04.483Z,6.91
2022-11-14T04:01:33.617Z,6.98
2022-11-14T04:07:02.291Z,7.12
2022-11-14T04:12:33.237Z,7.18
2022-11-14T04:18:06.123Z,7.10
2022-11-14T04:20:54.781Z,7.13
2022-11-14T04:26:24.993Z,7.11
2022-11-14T04:29:18.560Z,7.06
2022-11-14T04:32:08.345Z,7.10
2022-11-14T04:34:57.225Z,7.09
2022-11-14T04:40:37.532Z,7.19
2022-11-14T04:43:25.768Z,7.16
2022-11-14T04:46:13.714Z,7.18
2022-11-14T04:51:48.125Z,7.38
2022-11-14T04:54:37.247Z,7.31
2022-11-14T04:57:28.146Z,7.22
2022-11-14T05:00:17.792Z,7.24
2022-11-14T05:05:57.218Z,7.43
2022-11-14T05:11:28.074Z,7.48
2022-11-14T05:17:04.992Z,7.42
2022-11-14T05:22:39.524Z,7.23
2022-11-14T05:28:08.447Z,7.37
2022-11-14T05:33:42.794Z,7.41
2022-11-14T05:36:31.852Z,7.19
2022-11-14T05:39:19.986Z,7.24
2022-11-14T05:44:56.773Z,7.32
2022-11-14T05:50:27.232Z,7.41
2022-11-14T05:55:56.827Z,7.37
2022-11-14T06:01:23.775Z,7.42
2022-11-14T06:06:56.989Z,7.46
2022-11-14T06:12:35.476Z,7.64
2022-11-14T06:18:08.421Z,7.84
2022-11-14T06:23:45.005Z,7.91
2022-11-14T06:32:02.260Z,8.05
2022-11-14T06:34:50.686Z,8.05
2022-11-14T06:40:27.306Z,8.14
2022-11-14T06:45:57.569Z,8.08
2022-11-14T06:51:28.704Z,8.10
2022-11-14T06:57:05.789Z,8.15
2022-11-14T06:59:55.497Z,8.08
2022-11-14T07:02:47.047Z,8.14
2022-11-14T07:08:23.742Z,8.21
2022-11-14T07:14:03.844Z,8.26
2022-11-14T07:19:40.023Z,8.34
2022-11-14T07:22:28.254Z,8.31
2022-11-14T07:27:57.309Z,8.36
2022-11-14T07:30:46.213Z,8.31
2022-11-14T07:36:17.084Z,8.38
2022-11-14T07:41:54.230Z,8.43
2022-11-14T07:47:31.833Z,8.49
2022-11-14T07:53:00.995Z,8.54
2022-11-14T07:55:49.254Z,8.47
2022-11-14T08:01:25.388Z,8.51
2022-11-14T08:06:53.562Z,8.46
2022-11-14T08:09:41.781Z,8.50
2022-11-14T08:12:29.963Z,8.54
2022-11-14T08:18:07.951Z,8.59
2022-11-14T08:23:44.837Z,8.69
2022-11-14T08:29:22.473Z,8.74
2022-11-14T08:34:51.060Z,8.79
2022-11-14T08:40:26.788Z,8.93
2022-11-14T08:46:01.859Z,8.97
2022-11-14T08:51:37.130Z,9.01
2022-11-14T08:57:14.351Z,9.12
2022-11-14T09:02:51.472Z,9.18
2022-11-14T09:08:27.529Z,9.33
2022-11-14T09:14:02.573Z,9.43
2022-11-14T09:22:17.416Z,9.50
2022-11-14T09:25:06.414Z,9.47
2022-11-14T09:30:37.877Z,9.49
2022-11-14T09:33:27.748Z,9.45
2022-11-14T09:39:04.370Z,9.47
2022-11-14T09:44:52.834Z,9.51
2022-11-14T09:53:18.055Z,9.74
2022-11-14T09:56:09.208Z,9.73
2022-11-14T10:01:45.365Z,10.06
2022-11-14T10:07:27.855Z,10.14
2022-11-14T10:13:09.266Z,10.39
2022-11-14T10:18:54.562Z,10.57
2022-11-14T10:25:04.519Z,10.78
2022-11-14T10:30:47.100Z,11.03
2022-11-14T10:33:41.981Z,11.07
2022-11-14T10:36:50.430Z,11.06
2022-11-14T10:42:27.929Z,10.96
2022-11-14T10:48:13.256Z,10.79
2022-11-14T10:56:36.114Z,10.79
2022-11-14T11:02:04.241Z,10.95
2022-11-14T11:13:41.728Z,11.26
2022-11-14T11:19:21.376Z,11.61
2022-11-14T11:22:25.126Z,11.78
2022-11-14T11:25:28.458Z,11.94
2022-11-14T11:28:19.060Z,11.97
2022-11-14T11:31:08.831Z,11.92
2022-11-14T11:36:56.917Z,11.97
2022-11-14T11:45:17.859Z,12.11
2022-11-14T11:48:11.855Z,12.14
2022-11-14T11:54:06.020Z,12.33
2022-11-14T11:59:48.570Z,12.22
2022-11-14T12:05:47.341Z,12.23
2022-11-14T12:08:40.239Z,12.15
2022-11-14T12:14:25.817Z,12.28
2022-11-14T12:20:38.276Z,12.33
2022-11-14T12:26:46.003Z,12.34
2022-11-14T12:32:20.239Z,12.42
2022-11-14T12:38:00.898Z,12.50
2022-11-14T12:43:43.170Z,12.57
2022-11-14T12:52:45.792Z,12.75
2022-11-14T12:55:56.832Z,12.77
2022-11-14T13:02:18.032Z,13.04
2022-11-14T13:08:08.695Z,13.03
2022-11-14T13:10:58.063Z,12.94
2022-11-14T13:17:05.195Z,12.89
2022-11-14T13:20:12.173Z,12.85
2022-11-14T13:23:20.374Z,12.80
2022-11-14T13:27:00.111Z,12.79
2022-11-14T13:33:10.319Z,12.89
2022-11-14T13:36:05.244Z,12.93
2022-11-14T13:39:14.473Z,12.89
2022-11-14T13:49:05.204Z,12.95
2022-11-14T13:54:49.263Z,12.82
2022-11-14T14:06:36.636Z,12.61
2022-11-14T14:12:26.048Z,12.52
2022-11-14T14:18:10.735Z,12.44
2022-11-14T14:26:34.572Z,12.32
2022-11-14T14:32:15.254Z,12.28
2022-11-14T14:35:22.446Z,12.25
2022-11-14T14:41:02.893Z,12.39
2022-11-14T14:43:57.704Z,12.29
2022-11-14T14:49:30.512Z,12.32
2022-11-14T14:52:22.361Z,12.27
2022-11-14T14:58:24.953Z,12.23
2022-11-14T15:04:06.085Z,12.08
2022-11-14T15:06:55.933Z,11.97
2022-11-14T15:12:43.092Z,11.92
2022-11-14T15:15:33.325Z,11.86
2022-11-14T15:21:19.561Z,11.74
2022-11-14T15:27:00.332Z,11.67
2022-11-14T15:29:55.270Z,11.54
2022-11-14T15:35:41.838Z,11.51
2022-11-14T15:44:36.525Z,11.37
2022-11-14T15:47:27.670Z,11.27
2022-11-14T15:53:23.561Z,11.32
2022-11-14T16:04:35.519Z,11.26
2022-11-14T16:10:04.641Z,11.21
2022-11-14T16:15:41.557Z,11.27
2022-11-14T16:21:14.289Z,11.17
2022-11-14T16:26:51.670Z,11.18
2022-11-14T16:32:30.543Z,11.12
2022-11-14T16:35:20.538Z,11.04
2022-11-14T16:38:12.203Z,11.06
2022-11-14T16:43:51.916Z,11.05
2022-11-14T16:49:27.557Z,11.02
2022-11-14T16:52:17.075Z,10.93
2022-11-14T16:55:05.750Z,10.93
2022-11-14T17:00:46.602Z,10.96
2022-11-14T17:06:23.656Z,10.92
2022-11-14T17:11:57.066Z,10.94
2022-11-14T17:17:34.633Z,10.92
2022-11-14T17:20:23.851Z,10.89
2022-11-14T17:26:02.360Z,10.90
2022-11-14T17:31:44.438Z,10.87
2022-11-14T17:37:17.447Z,10.88
2022-11-14T17:42:55.719Z,10.85
2022-11-14T17:48:32.954Z,10.86
2022-11-14T17:53:59.021Z,10.85
2022-11-14T17:56:54.595Z,10.85
2022-11-14T18:02:26.377Z,10.75
2022-11-14T18:05:15.208Z,10.64
2022-11-14T18:13:32.959Z,10.57
2022-11-14T18:16:21.859Z,10.48
2022-11-14T18:24:36.627Z,10.28
2022-11-14T18:27:26.197Z,10.30
2022-11-14T18:33:01.465Z,10.12
2022-11-14T18:38:40.334Z,9.93
2022-11-14T18:44:15.591Z,9.85
2022-11-14T18:49:48.079Z,9.78
2022-11-14T18:52:37.348Z,9.47
2022-11-14T18:58:13.540Z,9.49
2022-11-14T19:03:44.673Z,9.58
2022-11-14T19:09:20.027Z,9.33
2022-11-14T19:12:23.386Z,9.23
2022-11-14T19:17:59.209Z,9.31
2022-11-14T19:23:37.180Z,9.24
2022-11-14T19:31:59.163Z,9.22
2022-11-14T19:37:37.253Z,9.21
2022-11-14T19:40:26.095Z,9.02
2022-11-14T19:46:04.012Z,9.40
2022-11-14T19:51:38.815Z,9.44
2022-11-14T19:54:27.137Z,9.29
2022-11-14T19:59:55.684Z,9.20
2022-11-14T20:05:26.999Z,9.09
2022-11-14T20:11:00.833Z,8.76
2022-11-14T20:16:31.194Z,8.94
2022-11-14T20:19:19.672Z,8.79
2022-11-14T20:24:49.258Z,8.61
2022-11-14T20:27:37.694Z,8.60
2022-11-14T20:33:07.669Z,8.71
2022-11-14T20:38:44.341Z,8.59
2022-11-14T20:47:00.082Z,8.41
2022-11-14T20:52:38.999Z,8.23
2022-11-14T20:55:28.507Z,8.01
2022-11-14T20:58:18.078Z,8.11
2022-11-14T21:01:06.775Z,8.14
2022-11-14T21:06:44.269Z,8.15
2022-11-14T21:12:19.773Z,8.46
2022-11-14T21:17:58.582Z,8.40
2022-11-14T21:20:48.924Z,8.46
2022-11-14T21:23:37.804Z,8.45
2022-11-14T21:29:16.149Z,8.55
2022-11-14T21:34:43.470Z,8.46
2022-11-14T21:37:48.465Z,8.44
2022-11-14T21:40:41.951Z,8.43
2022-11-14T21:43:30.529Z,8.45
2022-11-14T21:49:22.773Z,8.31
2022-11-14T21:52:11.159Z,8.26
2022-11-14T22:00:33.856Z,8.28
2022-11-14T22:03:40.943Z,8.18
2022-11-14T22:09:19.147Z,8.07
2022-11-14T22:14:53.689Z,7.82
2022-11-14T22:17:42.933Z,7.77
2022-11-14T22:20:31.129Z,7.82
2022-11-14T22:23:19.320Z,7.81
2022-11-14T22:28:52.939Z,7.84
2022-11-14T22:34:21.078Z,7.92
2022-11-14T22:39:57.646Z,7.85
2022-11-14T22:42:45.658Z,7.82
2022-11-14T22:48:19.667Z,7.88
2022-11-14T22:53:58.043Z,7.88
2022-11-14T22:56:46.417Z,7.81
2022-11-14T22:59:35.273Z,7.79
2022-11-14T23:02:25.332Z,7.74
2022-11-14T23:05:13.943Z,7.70
2022-11-14T23:08:02.403Z,7.69
2022-11-14T23:14:00.647Z,7.59
2022-11-14T23:22:19.253Z,7.58
2022-11-14T23:25:09.312Z,7.57
2022-11-14T23:30:37.511Z,7.53
2022-11-14T23:36:11.132Z,7.69
2022-11-14T23:39:00.688Z,7.71
2022-11-14T23:41:49.831Z,7.46
2022-11-14T23:47:30.259Z,7.50
2022-11-14T23:53:08.780Z,7.05
2022-11-14T23:58:41.807Z,7.21
